Time;durP1;ratioP1;P1;durP2;ratioP2;P2;SDS_P1;SDS_P2;PMS_P1;PMS_P2;Temp;Humidity;BMP_temperature;BMP_pressure;BME280_temperature;BME280_humidity;BME280_pressure;Samples;Min_cycle;Max_cycle;Signal;HPM_P1;HPM_P2
2022/09/30 00:02:08;;;;;;;14.82;13.20;;;;;;;;;;5051840;28;20103;-80
2022/09/30 00:04:34;;;;;;;15.88;13.57;;;;;;;;;;5051379;28;20087;-79
2022/09/30 00:07:00;;;;;;;14.50;13.00;;;;;;;;;;5053651;28;20049;-81
2022/09/30 00:09:26;;;;;;;17.02;13.30;;;;;;;;;;5055987;28;20045;-81
2022/09/30 00:11:52;;;;;;;13.93;12.40;;;;;;;;;;5058290;28;20044;-79
2022/09/30 00:14:19;;;;;;;25.27;15.60;;;;;;;;;;5060555;28;20040;-83
2022/09/30 00:16:45;;;;;;;27.02;17.85;;;;;;;;;;5064383;28;20116;-83
2022/09/30 00:19:11;;;;;;;27.20;15.98;;;;;;;;;;5060535;28;20040;-82
2022/09/30 00:21:37;;;;;;;22.10;15.48;;;;;;;;;;5060789;28;20609;-82
2022/09/30 00:24:03;;;;;;;31.88;18.27;;;;;;;;;;5059956;28;20102;-81
2022/09/30 00:26:29;;;;;;;23.80;16.17;;;;;;;;;;5055976;28;20037;-82
2022/09/30 00:28:56;;;;;;;19.75;14.18;;;;;;;;;;5055498;28;20037;-82
2022/09/30 00:31:22;;;;;;;20.25;14.23;;;;;;;;;;5052829;28;20037;-80
2022/09/30 00:34:05;;;;;;;23.90;15.60;;;;;;;;;;5052314;28;20056;-80
2022/09/30 00:36:44;;;;;;;23.83;15.85;;;;;;;;;;5052708;28;20143;-82
2022/09/30 00:39:11;;;;;;;17.63;14.10;;;;;;;;;;5056098;28;20045;-82
2022/09/30 00:41:37;;;;;;;21.83;13.52;;;;;;;;;;5061290;28;20076;-81
2022/09/30 00:44:23;;;;;;;20.55;15.40;;;;;;;;;;5060534;28;20037;-81
2022/09/30 00:46:49;;;;;;;18.95;15.00;;;;;;;;;;5056851;28;20041;-80
2022/09/30 00:49:16;;;;;;;16.95;15.18;;;;;;;;;;5055763;28;20135;-81
2022/09/30 00:51:45;;;;;;;18.05;15.00;;;;;;;;;;5053301;28;20527;-80
2022/09/30 00:54:12;;;;;;;20.90;15.73;;;;;;;;;;5051575;28;20033;-79
2022/09/30 00:56:40;;;;;;;23.98;15.95;;;;;;;;;;5051877;28;20123;-80
2022/09/30 00:59:07;;;;;;;23.13;16.02;;;;;;;;;;5050171;28;20037;-78
2022/09/30 01:01:33;;;;;;;20.83;15.70;;;;;;;;;;5047779;28;20052;-79
2022/09/30 01:04:01;;;;;;;27.70;16.65;;;;;;;;;;5048139;28;20330;-78
2022/09/30 01:06:27;;;;;;;24.38;16.73;;;;;;;;;;5050156;28;20075;-78
2022/09/30 01:08:54;;;;;;;24.05;16.95;;;;;;;;;;5052743;28;20052;-80
2022/09/30 01:11:20;;;;;;;22.20;14.48;;;;;;;;;;5051032;28;20331;-82
2022/09/30 01:13:47;;;;;;;29.17;17.08;;;;;;;;;;5051480;28;20307;-79
2022/09/30 01:16:20;;;;;;;27.83;17.60;;;;;;;;;;5052531;28;20098;-81
2022/09/30 01:18:46;;;;;;;28.45;17.45;;;;;;;;;;5060033;28;20059;-81
2022/09/30 01:21:31;;;;;;;24.30;15.90;;;;;;;;;;5078386;28;20110;-80
2022/09/30 01:24:26;;;;;;;22.67;16.25;;;;;;;;;;5060644;28;20429;-81
2022/09/30 01:26:55;;;;;;;22.90;15.63;;;;;;;;;;5039517;28;20069;-81
2022/09/30 01:29:40;;;;;;;26.55;16.05;;;;;;;;;;5055082;28;20445;-81
2022/09/30 01:32:06;;;;;;;21.30;14.70;;;;;;;;;;5054701;28;20433;-80
2022/09/30 01:34:51;;;;;;;24.40;14.02;;;;;;;;;;5055555;28;20488;-82
2022/09/30 01:37:34;;;;;;;21.83;15.43;;;;;;;;;;5057465;28;20510;-82
2022/09/30 01:40:07;;;;;;;17.27;12.98;;;;;;;;;;5044586;28;20052;-83
2022/09/30 01:42:41;;;;;;;20.17;14.70;;;;;;;;;;5058792;28;20053;-81
2022/09/30 01:45:28;;;;;;;17.30;12.52;;;;;;;;;;5042332;28;20118;-80
2022/09/30 01:48:02;;;;;;;16.27;13.65;;;;;;;;;;5027574;28;20088;-82
2022/09/30 01:50:37;;;;;;;16.73;13.43;;;;;;;;;;5072291;28;20041;-82
2022/09/30 01:53:26;;;;;;;17.23;13.07;;;;;;;;;;5070078;28;20048;-83
2022/09/30 01:56:24;;;;;;;22.50;15.38;;;;;;;;;;5055358;28;20041;-82
2022/09/30 01:58:55;;;;;;;17.63;13.65;;;;;;;;;;5018576;28;20425;-81
2022/09/30 02:01:21;;;;;;;;;;;;;;;;;;5062631;28;20039;-81
2022/09/30 02:03:48;;;;;;;12.05;10.32;;;;;;;;;;5058195;28;19916;-79
2022/09/30 02:06:19;;;;;;;18.40;12.48;;;;;;;;;;5056463;28;20107;-82
2022/09/30 02:08:55;;;;;;;18.90;14.20;;;;;;;;;;5063221;28;20053;-80
2022/09/30 02:11:24;;;;;;;19.70;16.13;;;;;;;;;;5062488;28;20452;-81
2022/09/30 02:13:51;;;;;;;22.70;15.60;;;;;;;;;;5061807;28;20497;-80
2022/09/30 02:16:40;;;;;;;18.30;13.93;;;;;;;;;;5054647;28;20327;-80
2022/09/30 02:19:12;;;;;;;17.60;14.25;;;;;;;;;;5054352;28;20041;-80
2022/09/30 02:21:39;;;;;;;17.70;12.77;;;;;;;;;;5054751;28;20507;-81
2022/09/30 02:24:06;;;;;;;11.80;10.68;;;;;;;;;;5054152;28;20493;-81
2022/09/30 02:26:38;;;;;;;18.42;14.35;;;;;;;;;;5057538;28;20052;-83
2022/09/30 02:29:09;;;;;;;18.20;13.93;;;;;;;;;;5033431;28;20510;-82
2022/09/30 02:31:36;;;;;;;18.63;14.18;;;;;;;;;;5067218;28;20044;-80
2022/09/30 02:34:02;;;;;;;21.77;17.00;;;;;;;;;;5050096;28;20029;-82
2022/09/30 02:36:29;;;;;;;23.67;17.33;;;;;;;;;;5059633;28;20041;-80
2022/09/30 02:39:05;;;;;;;18.27;15.23;;;;;;;;;;5058380;28;20041;-82
2022/09/30 02:41:33;;;;;;;15.68;13.43;;;;;;;;;;5057576;28;20120;-82
2022/09/30 02:43:59;;;;;;;16.80;13.32;;;;;;;;;;5040639;28;20060;-83
2022/09/30 02:46:28;;;;;;;18.23;14.63;;;;;;;;;;5074295;28;20044;-81
2022/09/30 02:49:14;;;;;;;20.02;16.13;;;;;;;;;;5041111;28;20432;-80
2022/09/30 02:51:40;;;;;;;17.15;15.35;;;;;;;;;;5058656;28;20056;-82
2022/09/30 02:54:16;;;;;;;16.80;13.77;;;;;;;;;;5058697;28;20041;-81
2022/09/30 02:57:03;;;;;;;15.45;12.25;;;;;;;;;;5058362;28;20110;-81
2022/09/30 02:59:30;;;;;;;12.82;11.45;;;;;;;;;;5057897;28;20044;-82
2022/09/30 03:01:56;;;;;;;14.93;12.88;;;;;;;;;;5056382;28;20532;-82
2022/09/30 03:04:22;;;;;;;15.52;13.50;;;;;;;;;;5059546;28;20040;-82
2022/09/30 03:06:48;;;;;;;16.23;12.75;;;;;;;;;;5071006;28;20098;-82
2022/09/30 03:09:14;;;;;;;14.38;10.45;;;;;;;;;;5078918;28;20052;-83
2022/09/30 03:11:40;;;;;;;11.88;10.38;;;;;;;;;;5079381;28;20040;-81
2022/09/30 03:14:08;;;;;;;13.85;9.85;;;;;;;;;;5079400;28;20044;-82
2022/09/30 03:16:34;;;;;;;15.00;11.68;;;;;;;;;;5075764;28;20097;-82
2022/09/30 03:19:06;;;;;;;14.95;11.57;;;;;;;;;;5073471;28;20509;-81
2022/09/30 03:21:38;;;;;;;13.30;9.80;;;;;;;;;;5061948;28;20045;-83
2022/09/30 03:24:17;;;;;;;15.70;12.32;;;;;;;;;;5064315;28;20045;-82
2022/09/30 03:26:47;;;;;;;13.05;11.68;;;;;;;;;;5042097;28;20051;-82
2022/09/30 03:29:18;;;;;;;10.85;9.75;;;;;;;;;;5052404;28;20521;-81
2022/09/30 03:31:53;;;;;;;18.73;11.90;;;;;;;;;;5052533;28;20048;-80
2022/09/30 03:34:36;;;;;;;15.10;12.68;;;;;;;;;;5050729;28;20517;-81
2022/09/30 03:37:07;;;;;;;14.90;11.30;;;;;;;;;;5033363;28;20111;-80
2022/09/30 03:39:33;;;;;;;;;;;;;;;;;;5049318;28;20045;-79
2022/09/30 03:42:19;;;;;;;11.23;9.10;;;;;;;;;;5050122;28;20376;-81
2022/09/30 03:44:48;;;;;;;13.85;10.38;;;;;;;;;;5049812;28;20041;-82
2022/09/30 03:47:14;;;;;;;13.27;10.77;;;;;;;;;;5084850;28;20074;-81
2022/09/30 03:50:00;;;;;;;12.13;10.48;;;;;;;;;;5069952;28;20032;-82
2022/09/30 03:52:26;;;;;;;11.07;8.80;;;;;;;;;;5071303;28;20135;-81
2022/09/30 03:54:56;;;;;;;9.23;8.35;;;;;;;;;;5070062;28;20032;-82
2022/09/30 03:57:25;;;;;;;10.77;9.77;;;;;;;;;;5068924;28;20219;-82
2022/09/30 03:59:50;;;;;;;10.85;9.75;;;;;;;;;;5069721;28;20033;-81
2022/09/30 04:02:17;;;;;;;10.80;9.82;;;;;;;;;;5069257;28;20113;-81
2022/09/30 04:04:43;;;;;;;12.27;11.18;;;;;;;;;;5070015;28;20124;-81
2022/09/30 04:07:09;;;;;;;11.60;10.50;;;;;;;;;;5069839;28;20537;-81
2022/09/30 04:09:35;;;;;;;9.63;8.68;;;;;;;;;;5085537;28;20497;-83
2022/09/30 04:12:01;;;;;;;8.73;7.90;;;;;;;;;;5070532;28;20051;-81
2022/09/30 04:14:27;;;;;;;12.52;9.77;;;;;;;;;;5070229;28;20039;-80
2022/09/30 04:16:53;;;;;;;11.90;10.48;;;;;;;;;;5061925;28;20041;-80
2022/09/30 04:19:19;;;;;;;12.32;7.57;;;;;;;;;;5049875;28;20033;-81
2022/09/30 04:21:45;;;;;;;6.78;6.18;;;;;;;;;;5064933;28;20047;-82
2022/09/30 04:24:11;;;;;;;7.10;6.38;;;;;;;;;;5050505;28;20468;-81
2022/09/30 04:26:37;;;;;;;7.65;7.05;;;;;;;;;;5048243;28;20107;-81
2022/09/30 04:29:03;;;;;;;8.48;7.85;;;;;;;;;;5048851;28;20033;-78
2022/09/30 04:31:29;;;;;;;8.93;7.40;;;;;;;;;;5047098;28;20041;-80
2022/09/30 04:33:57;;;;;;;17.90;8.77;;;;;;;;;;5047123;28;20052;-80
2022/09/30 04:36:23;;;;;;;11.40;9.35;;;;;;;;;;5047201;28;20044;-80
2022/09/30 04:38:49;;;;;;;9.68;8.82;;;;;;;;;;5045874;28;20114;-81
2022/09/30 04:41:16;;;;;;;10.50;9.45;;;;;;;;;;5047361;28;20127;-82
2022/09/30 04:43:45;;;;;;;8.77;7.97;;;;;;;;;;5048251;28;20049;-82
2022/09/30 04:46:12;;;;;;;11.00;9.18;;;;;;;;;;5047999;28;20113;-81
2022/09/30 04:48:38;;;;;;;10.82;9.75;;;;;;;;;;5049203;28;20045;-82
2022/09/30 04:51:04;;;;;;;16.10;10.23;;;;;;;;;;5049582;28;20120;-81
2022/09/30 04:53:29;;;;;;;10.95;8.93;;;;;;;;;;5048112;28;20132;-82
2022/09/30 04:55:59;;;;;;;16.65;11.82;;;;;;;;;;5049722;28;20261;-81
2022/09/30 04:58:25;;;;;;;19.05;10.30;;;;;;;;;;5049950;28;20075;-82
2022/09/30 05:00:51;;;;;;;13.32;9.43;;;;;;;;;;5032408;28;20045;-81
2022/09/30 05:03:18;;;;;;;14.52;10.55;;;;;;;;;;5052842;28;20048;-81
2022/09/30 05:05:44;;;;;;;10.35;9.45;;;;;;;;;;5059472;28;20041;-81
2022/09/30 05:08:10;;;;;;;8.88;8.07;;;;;;;;;;5057481;28;20057;-80
2022/09/30 05:10:36;;;;;;;11.52;9.15;;;;;;;;;;5054486;28;20049;-82
2022/09/30 05:13:02;;;;;;;13.02;10.13;;;;;;;;;;5050976;28;20044;-81
2022/09/30 05:15:28;;;;;;;9.77;8.90;;;;;;;;;;5053004;28;20128;-83
2022/09/30 05:17:54;;;;;;;8.32;7.40;;;;;;;;;;5057080;28;20060;-80
2022/09/30 05:20:20;;;;;;;12.80;10.13;;;;;;;;;;5055840;28;20428;-81
2022/09/30 05:22:46;;;;;;;10.55;9.55;;;;;;;;;;5050698;28;20136;-82
2022/09/30 05:25:12;;;;;;;10.90;9.35;;;;;;;;;;5050793;28;20079;-82
2022/09/30 05:27:38;;;;;;;12.52;9.45;;;;;;;;;;5052595;28;20143;-82
2022/09/30 05:30:05;;;;;;;8.27;7.57;;;;;;;;;;5054598;28;20075;-83
2022/09/30 05:32:31;;;;;;;9.07;8.27;;;;;;;;;;5054273;28;20501;-82
2022/09/30 05:34:57;;;;;;;10.68;7.57;;;;;;;;;;5053709;28;20120;-84
2022/09/30 05:37:23;;;;;;;12.05;7.32;;;;;;;;;;5053476;28;20053;-83
2022/09/30 05:39:49;;;;;;;8.60;7.88;;;;;;;;;;5050637;28;20037;-82
2022/09/30 05:42:15;;;;;;;8.23;6.25;;;;;;;;;;5050586;28;20056;-82
2022/09/30 05:44:41;;;;;;;9.27;7.65;;;;;;;;;;5049595;28;20045;-82
2022/09/30 05:47:10;;;;;;;10.60;7.95;;;;;;;;;;5048715;28;20288;-81
2022/09/30 05:49:36;;;;;;;8.15;7.22;;;;;;;;;;5049988;28;20041;-82
2022/09/30 05:52:02;;;;;;;16.85;8.35;;;;;;;;;;5052469;28;20036;-83
2022/09/30 05:54:28;;;;;;;6.15;5.47;;;;;;;;;;5052365;28;20095;-82
2022/09/30 05:56:53;;;;;;;9.70;8.70;;;;;;;;;;5047313;28;20033;-82
2022/09/30 05:59:19;;;;;;;8.98;7.95;;;;;;;;;;5029564;28;20498;-82
2022/09/30 06:01:45;;;;;;;9.55;8.55;;;;;;;;;;5030085;28;20513;-81
2022/09/30 06:04:11;;;;;;;10.57;8.45;;;;;;;;;;5032060;28;20418;-81
2022/09/30 06:06:37;;;;;;;11.13;9.63;;;;;;;;;;5029641;28;20048;-81
2022/09/30 06:09:03;;;;;;;8.70;7.88;;;;;;;;;;5028872;28;20133;-81
2022/09/30 06:11:30;;;;;;;11.45;7.43;;;;;;;;;;5051478;28;20045;-80
2022/09/30 06:13:56;;;;;;;10.40;8.63;;;;;;;;;;5057018;28;20044;-80
2022/09/30 06:16:22;;;;;;;12.93;8.73;;;;;;;;;;5052494;28;20041;-83
2022/09/30 06:18:48;;;;;;;17.23;8.35;;;;;;;;;;5030609;28;20041;-82
2022/09/30 06:21:14;;;;;;;9.30;7.65;;;;;;;;;;5051090;28;20051;-83
2022/09/30 06:23:40;;;;;;;6.40;5.88;;;;;;;;;;5073963;28;20067;-82
2022/09/30 06:26:07;;;;;;;9.25;8.30;;;;;;;;;;5071128;28;20385;-80
2022/09/30 06:28:34;;;;;;;8.52;7.70;;;;;;;;;;5056020;28;20103;-81
2022/09/30 06:31:03;;;;;;;10.35;8.48;;;;;;;;;;5053876;28;20032;-81
2022/09/30 06:33:29;;;;;;;14.50;9.82;;;;;;;;;;5047416;28;20044;-82
2022/09/30 06:35:55;;;;;;;8.40;7.65;;;;;;;;;;5050361;28;20079;-83
2022/09/30 06:38:22;;;;;;;9.35;8.20;;;;;;;;;;5050690;28;20088;-81
2022/09/30 06:40:50;;;;;;;12.48;10.40;;;;;;;;;;5051391;28;20045;-80
2022/09/30 06:43:16;;;;;;;14.82;10.30;;;;;;;;;;5050144;28;20088;-80
2022/09/30 06:45:44;;;;;;;12.05;9.23;;;;;;;;;;5066231;28;20040;-87
2022/09/30 06:48:10;;;;;;;12.52;9.98;;;;;;;;;;5077571;28;20029;-85
2022/09/30 06:50:38;;;;;;;10.13;9.23;;;;;;;;;;5092102;28;20100;-84
2022/09/30 06:53:07;;;;;;;14.27;9.32;;;;;;;;;;5068324;28;20053;-84
2022/09/30 06:55:35;;;;;;;13.13;10.15;;;;;;;;;;5065241;28;20044;-85
2022/09/30 06:58:01;;;;;;;13.15;9.90;;;;;;;;;;5068162;28;20072;-86
2022/09/30 07:00:27;;;;;;;9.68;8.77;;;;;;;;;;5069553;28;20044;-84
2022/09/30 07:02:55;;;;;;;15.65;9.23;;;;;;;;;;5068464;28;20110;-83
2022/09/30 07:05:21;;;;;;;12.18;10.23;;;;;;;;;;5063317;28;20104;-83
2022/09/30 07:07:48;;;;;;;11.80;9.43;;;;;;;;;;5065359;28;20517;-79
2022/09/30 07:10:13;;;;;;;7.68;6.72;;;;;;;;;;5055727;28;20064;-81
2022/09/30 07:12:41;;;;;;;10.60;9.60;;;;;;;;;;5065943;28;20049;-82
2022/09/30 07:15:07;;;;;;;12.18;10.98;;;;;;;;;;5075085;28;20037;-84
2022/09/30 07:17:32;;;;;;;12.40;11.18;;;;;;;;;;5064115;28;20059;-82
2022/09/30 07:19:59;;;;;;;16.65;11.48;;;;;;;;;;5091033;28;20011;-89
2022/09/30 07:22:28;;;;;;;16.63;11.13;;;;;;;;;;5090113;28;20064;-83
2022/09/30 07:24:58;;;;;;;16.52;10.13;;;;;;;;;;5072544;28;20448;-82
2022/09/30 07:27:24;;;;;;;12.63;10.00;;;;;;;;;;5073788;28;20041;-82
2022/09/30 07:29:50;;;;;;;15.77;11.38;;;;;;;;;;5073196;28;20048;-83
2022/09/30 07:32:18;;;;;;;12.40;11.10;;;;;;;;;;5075723;28;20051;-83
2022/09/30 07:34:44;;;;;;;11.32;10.13;;;;;;;;;;5074633;28;20274;-82
2022/09/30 07:37:11;;;;;;;14.45;12.00;;;;;;;;;;5074115;28;20033;-82
2022/09/30 07:39:37;;;;;;;9.55;7.82;;;;;;;;;;5078245;28;20036;-83
2022/09/30 07:42:04;;;;;;;13.63;12.52;;;;;;;;;;5089280;28;20036;-84
2022/09/30 07:44:30;;;;;;;13.95;12.52;;;;;;;;;;5082923;28;20044;-84
2022/09/30 07:46:57;;;;;;;13.57;10.65;;;;;;;;;;5081349;28;20385;-84
2022/09/30 07:49:24;;;;;;;15.07;11.35;;;;;;;;;;5055283;28;20040;-80
2022/09/30 07:51:50;;;;;;;11.70;10.55;;;;;;;;;;5050022;28;20041;-81
2022/09/30 07:54:17;;;;;;;11.95;10.90;;;;;;;;;;5049611;28;20091;-80
2022/09/30 07:56:43;;;;;;;16.38;12.18;;;;;;;;;;5049487;28;20559;-79
2022/09/30 07:59:09;;;;;;;12.57;11.38;;;;;;;;;;5065068;28;20045;-81
2022/09/30 08:01:35;;;;;;;12.15;10.77;;;;;;;;;;5057797;28;20044;-79
2022/09/30 08:04:02;;;;;;;12.07;10.93;;;;;;;;;;5061295;28;20530;-82
2022/09/30 08:06:28;;;;;;;12.75;11.45;;;;;;;;;;5035920;28;20547;-79
2022/09/30 08:08:55;;;;;;;13.23;11.07;;;;;;;;;;5028858;28;20149;-80
2022/09/30 08:11:22;;;;;;;7.13;6.50;;;;;;;;;;5048043;28;20049;-81
2022/09/30 08:13:54;;;;;;;13.05;11.85;;;;;;;;;;5047827;28;20163;-78
2022/09/30 08:16:20;;;;;;;12.57;11.32;;;;;;;;;;5049678;28;20514;-81
2022/09/30 08:18:46;;;;;;;14.10;12.40;;;;;;;;;;5051396;28;20040;-83
2022/09/30 08:21:12;;;;;;;14.63;11.95;;;;;;;;;;5056829;28;20170;-83
2022/09/30 08:23:38;;;;;;;14.85;13.15;;;;;;;;;;5065595;28;20060;-85
2022/09/30 08:26:08;;;;;;;13.18;11.85;;;;;;;;;;5082229;28;20390;-84
2022/09/30 08:28:34;;;;;;;13.88;11.23;;;;;;;;;;5049913;28;20013;-86
2022/09/30 08:31:07;;;;;;;17.70;11.88;;;;;;;;;;5067248;28;20051;-83
2022/09/30 08:33:33;;;;;;;14.55;11.75;;;;;;;;;;5084045;28;20036;-84
2022/09/30 08:36:03;;;;;;;18.45;13.02;;;;;;;;;;5089834;28;20051;-82
2022/09/30 08:38:29;;;;;;;13.70;12.47;;;;;;;;;;5090727;28;20056;-85
2022/09/30 08:41:04;;;;;;;16.10;12.95;;;;;;;;;;5091705;28;20040;-84
2022/09/30 08:43:42;;;;;;;14.52;13.02;;;;;;;;;;5094552;28;20054;-83
2022/09/30 08:46:35;;;;;;;18.48;12.80;;;;;;;;;;5074108;28;20037;-79
2022/09/30 08:49:01;;;;;;;16.15;13.25;;;;;;;;;;5044759;28;20086;-80
2022/09/30 08:51:30;;;;;;;16.40;13.07;;;;;;;;;;5050647;28;20483;-83
2022/09/30 08:53:56;;;;;;;14.15;12.23;;;;;;;;;;5051415;28;20072;-83
2022/09/30 08:56:23;;;;;;;16.40;13.55;;;;;;;;;;5049600;28;20033;-82
2022/09/30 08:58:49;;;;;;;21.35;15.05;;;;;;;;;;5049249;28;20049;-81
2022/09/30 09:01:16;;;;;;;14.68;12.75;;;;;;;;;;5045293;28;20032;-81
2022/09/30 09:03:44;;;;;;;18.92;13.82;;;;;;;;;;5081187;28;20055;-82
2022/09/30 09:06:26;;;;;;;18.92;14.95;;;;;;;;;;5067794;28;20186;-81
2022/09/30 09:08:58;;;;;;;19.45;14.52;;;;;;;;;;5070114;28;20052;-81
2022/09/30 09:11:36;;;;;;;22.90;13.38;;;;;;;;;;5061110;28;20045;-81
2022/09/30 09:14:05;;;;;;;10.85;9.85;;;;;;;;;;5067616;28;20127;-83
2022/09/30 09:16:53;;;;;;;20.48;15.50;;;;;;;;;;5064505;28;20581;-81
2022/09/30 09:19:21;;;;;;;17.33;12.15;;;;;;;;;;5066101;28;20032;-81
2022/09/30 09:21:52;;;;;;;16.75;13.02;;;;;;;;;;5064885;28;20041;-82
2022/09/30 09:24:19;;;;;;;26.05;14.15;;;;;;;;;;5057533;28;20045;-83
2022/09/30 09:26:45;;;;;;;14.05;12.57;;;;;;;;;;5044517;28;20049;-82
2022/09/30 09:29:30;;;;;;;17.08;14.10;;;;;;;;;;5046606;28;20049;-81
2022/09/30 09:31:58;;;;;;;17.08;14.32;;;;;;;;;;5048045;28;20033;-80
2022/09/30 09:34:24;;;;;;;17.15;13.18;;;;;;;;;;5030881;28;20072;-81
2022/09/30 09:37:05;;;;;;;17.65;15.30;;;;;;;;;;5049222;28;20528;-82
2022/09/30 09:39:31;;;;;;;18.40;14.15;;;;;;;;;;5048363;28;20045;-81
2022/09/30 09:42:00;;;;;;;18.55;13.98;;;;;;;;;;5048321;28;20052;-81
2022/09/30 09:44:47;;;;;;;16.33;12.80;;;;;;;;;;5048336;28;20048;-81
2022/09/30 09:47:14;;;;;;;10.52;9.60;;;;;;;;;;5048372;28;20459;-80
2022/09/30 09:49:43;;;;;;;18.42;14.23;;;;;;;;;;5048456;28;20146;-82
2022/09/30 09:52:10;;;;;;;17.65;14.25;;;;;;;;;;5047410;28;20406;-81
2022/09/30 09:54:40;;;;;;;19.15;12.73;;;;;;;;;;5048339;28;20106;-82
2022/09/30 09:57:09;;;;;;;20.42;15.43;;;;;;;;;;5048806;28;20037;-81
2022/09/30 09:59:36;;;;;;;13.90;12.50;;;;;;;;;;5050623;28;20523;-82
2022/09/30 10:02:02;;;;;;;14.98;10.65;;;;;;;;;;5052347;28;20139;-82
2022/09/30 10:04:29;;;;;;;17.58;14.20;;;;;;;;;;5034598;28;20610;-82
2022/09/30 10:06:59;;;;;;;17.35;15.00;;;;;;;;;;5052184;28;20116;-82
2022/09/30 10:09:25;;;;;;;21.47;14.07;;;;;;;;;;5052664;28;20080;-82
2022/09/30 10:12:07;;;;;;;19.45;14.15;;;;;;;;;;5052444;28;20516;-81
2022/09/30 10:14:33;;;;;;;17.15;14.90;;;;;;;;;;5052175;28;20406;-81
2022/09/30 10:16:59;;;;;;;19.10;15.20;;;;;;;;;;5034025;28;20033;-82
2022/09/30 10:19:25;;;;;;;16.90;14.82;;;;;;;;;;5051522;28;20044;-82
2022/09/30 10:22:07;;;;;;;20.15;14.25;;;;;;;;;;5051883;28;20123;-82
2022/09/30 10:24:33;;;;;;;17.67;14.52;;;;;;;;;;5067542;28;20055;-81
2022/09/30 10:26:59;;;;;;;20.67;14.85;;;;;;;;;;5051807;28;20040;-81
2022/09/30 10:30:02;;;;;;;18.75;14.60;;;;;;;;;;5050431;28;20044;-81
2022/09/30 10:32:37;;;;;;;18.90;14.25;;;;;;;;;;5066441;28;20543;-82
2022/09/30 10:35:04;;;;;;;15.75;13.90;;;;;;;;;;5052008;28;20045;-83
2022/09/30 10:37:30;;;;;;;14.55;12.90;;;;;;;;;;5052483;28;20128;-83
2022/09/30 10:40:00;;;;;;;14.05;12.40;;;;;;;;;;5034202;28;20049;-82
2022/09/30 10:42:30;;;;;;;16.45;13.77;;;;;;;;;;5050655;28;20051;-81
2022/09/30 10:44:57;;;;;;;13.82;12.52;;;;;;;;;;5052166;28;20120;-81
2022/09/30 10:47:25;;;;;;;14.00;12.25;;;;;;;;;;5050807;28;20128;-82
2022/09/30 10:49:57;;;;;;;16.63;12.38;;;;;;;;;;5051533;28;20029;-82
2022/09/30 10:52:23;;;;;;;15.93;12.20;;;;;;;;;;5052186;28;20041;-82
2022/09/30 10:54:53;;;;;;;16.95;13.93;;;;;;;;;;5049948;28;20045;-81
2022/09/30 10:57:23;;;;;;;12.65;11.50;;;;;;;;;;5051598;28;20622;-81
2022/09/30 10:59:49;;;;;;;13.30;11.97;;;;;;;;;;5050269;28;20425;-81
2022/09/30 11:02:21;;;;;;;14.52;13.05;;;;;;;;;;5017717;28;20499;-81
2022/09/30 11:05:06;;;;;;;13.85;11.52;;;;;;;;;;5057644;28;20040;-82
2022/09/30 11:07:50;;;;;;;14.20;11.30;;;;;;;;;;5058156;28;20172;-82
2022/09/30 11:10:52;;;;;;;15.80;11.32;;;;;;;;;;5052184;28;20106;-82
2022/09/30 11:13:37;;;;;;;15.95;12.27;;;;;;;;;;5012621;28;20045;-81
2022/09/30 11:16:21;;;;;;;12.90;11.60;;;;;;;;;;5031709;28;20064;-82
2022/09/30 12:09:47;;;;;;;11.75;10.55;;;;;;;;;;5049624;28;20064;-82
2022/09/30 12:12:18;;;;;;;12.23;11.15;;;;;;;;;;5050370;28;20128;-83
2022/09/30 12:14:53;;;;;;;12.57;11.35;;;;;;;;;;5050675;28;20048;-81
2022/09/30 12:17:30;;;;;;;10.75;9.60;;;;;;;;;;5032674;28;20167;-82
2022/09/30 12:19:57;;;;;;;10.18;9.18;;;;;;;;;;5032743;28;20036;-82
2022/09/30 12:22:32;;;;;;;9.80;8.90;;;;;;;;;;5032392;28;20045;-81
2022/09/30 12:24:58;;;;;;;11.55;10.45;;;;;;;;;;5048884;28;20123;-82
2022/09/30 12:27:28;;;;;;;15.65;10.65;;;;;;;;;;5050369;28;20540;-82
2022/09/30 12:30:16;;;;;;;12.20;11.07;;;;;;;;;;5050313;28;20111;-82
2022/09/30 12:32:55;;;;;;;11.23;10.23;;;;;;;;;;5035410;28;20108;-82
2022/09/30 12:35:42;;;;;;;7.97;7.07;;;;;;;;;;5048872;28;20041;-82
2022/09/30 12:38:11;;;;;;;11.52;10.20;;;;;;;;;;5049731;28;20049;-82
2022/09/30 12:40:38;;;;;;;12.18;11.07;;;;;;;;;;5050085;28;20079;-81
2022/09/30 12:43:07;;;;;;;10.93;9.98;;;;;;;;;;5048577;28;20122;-82
2022/09/30 12:45:35;;;;;;;15.10;12.35;;;;;;;;;;5050097;28;20102;-82
2022/09/30 12:48:02;;;;;;;15.30;12.55;;;;;;;;;;5049920;28;20048;-81
2022/09/30 12:50:39;;;;;;;18.88;11.38;;;;;;;;;;5032239;28;20095;-82
2022/09/30 12:53:25;;;;;;;12.93;11.73;;;;;;;;;;5048881;28;20094;-83
2022/09/30 12:55:51;;;;;;;13.52;12.32;;;;;;;;;;5049609;28;20106;-82
2022/09/30 12:58:24;;;;;;;14.05;11.35;;;;;;;;;;5052154;28;20123;-82
2022/09/30 13:01:16;;;;;;;12.50;10.52;;;;;;;;;;5064757;28;20132;-81
2022/09/30 13:04:05;;;;;;;11.75;10.55;;;;;;;;;;5048902;28;20426;-82
2022/09/30 13:06:46;;;;;;;13.55;11.57;;;;;;;;;;5041524;28;20045;-82
2022/09/30 13:09:15;;;;;;;13.65;12.38;;;;;;;;;;5048388;28;20060;-82
2022/09/30 13:12:01;;;;;;;13.90;11.73;;;;;;;;;;5050433;28;20112;-81
2022/09/30 13:14:34;;;;;;;12.75;11.50;;;;;;;;;;5041760;28;20044;-82
2022/09/30 13:17:01;;;;;;;12.43;11.25;;;;;;;;;;5065147;28;20040;-82
2022/09/30 13:19:35;;;;;;;13.63;12.10;;;;;;;;;;5048544;28;20040;-82
2022/09/30 13:22:19;;;;;;;14.35;12.93;;;;;;;;;;5048828;28;20045;-82
2022/09/30 13:25:04;;;;;;;17.80;14.05;;;;;;;;;;5049771;28;20049;-82
2022/09/30 13:27:35;;;;;;;16.02;13.65;;;;;;;;;;5049924;28;20131;-81
2022/09/30 13:30:01;;;;;;;14.98;13.68;;;;;;;;;;5049591;28;20049;-82
2022/09/30 13:32:31;;;;;;;15.30;13.82;;;;;;;;;;5050041;28;20149;-82
2022/09/30 13:34:58;;;;;;;15.63;14.02;;;;;;;;;;5053897;28;20032;-83
2022/09/30 13:37:36;;;;;;;17.50;14.65;;;;;;;;;;5055034;28;20044;-81
2022/09/30 13:40:05;;;;;;;21.88;17.10;;;;;;;;;;5036890;28;20079;-82
2022/09/30 13:42:32;;;;;;;19.05;17.27;;;;;;;;;;5033586;28;20094;-81
2022/09/30 13:45:02;;;;;;;24.48;16.00;;;;;;;;;;5032899;28;20128;-82
2022/09/30 13:47:34;;;;;;;19.45;17.45;;;;;;;;;;5034215;28;20540;-82
2022/09/30 13:50:03;;;;;;;21.25;18.02;;;;;;;;;;5033314;28;20049;-81
2022/09/30 13:52:32;;;;;;;19.33;15.95;;;;;;;;;;5033978;28;20061;-81
2022/09/30 13:55:02;;;;;;;18.38;16.38;;;;;;;;;;5033406;28;20041;-82
2022/09/30 13:57:29;;;;;;;;;;;;;;;;;;5032904;28;20053;-82
2022/09/30 14:00:08;;;;;;;18.80;16.83;;;;;;;;;;5033470;28;19913;-82
2022/09/30 14:02:40;;;;;;;22.95;17.88;;;;;;;;;;5037425;28;20077;-84
2022/09/30 14:05:18;;;;;;;18.23;16.27;;;;;;;;;;5037386;28;20281;-82
2022/09/30 14:07:50;;;;;;;20.40;15.98;;;;;;;;;;5038502;28;20116;-82
2022/09/30 14:10:17;;;;;;;20.70;17.27;;;;;;;;;;5052948;28;20052;-82
2022/09/30 14:13:02;;;;;;;17.95;16.10;;;;;;;;;;5053441;28;20179;-81
2022/09/30 14:15:41;;;;;;;16.98;15.15;;;;;;;;;;5051529;28;20643;-82
2022/09/30 14:18:07;;;;;;;17.40;15.57;;;;;;;;;;5052526;28;20033;-82
2022/09/30 14:20:52;;;;;;;19.40;17.00;;;;;;;;;;5052694;28;20040;-82
2022/09/30 14:23:18;;;;;;;20.13;17.40;;;;;;;;;;5066953;28;20307;-82
2022/09/30 14:25:53;;;;;;;21.15;18.85;;;;;;;;;;5051057;28;20718;-82
2022/09/30 14:28:23;;;;;;;20.48;17.13;;;;;;;;;;5050840;28;20037;-82
2022/09/30 14:31:08;;;;;;;19.98;17.90;;;;;;;;;;5051765;28;20045;-80
2022/09/30 14:33:34;;;;;;;15.50;14.25;;;;;;;;;;5052024;28;20045;-81
2022/09/30 14:36:00;;;;;;;19.20;16.98;;;;;;;;;;5051782;28;20029;-81
2022/09/30 14:38:28;;;;;;;21.42;15.65;;;;;;;;;;5050751;28;20543;-81
2022/09/30 14:41:05;;;;;;;14.25;13.05;;;;;;;;;;5050629;28;20066;-81
2022/09/30 14:43:34;;;;;;;14.00;12.68;;;;;;;;;;5050789;28;20047;-80
2022/09/30 14:46:06;;;;;;;16.27;14.48;;;;;;;;;;5050369;28;20098;-82
2022/09/30 14:48:33;;;;;;;24.27;16.17;;;;;;;;;;5052499;28;20069;-81
2022/09/30 14:51:09;;;;;;;15.25;13.95;;;;;;;;;;5052034;28;20041;-82
2022/09/30 14:53:36;;;;;;;14.57;11.75;;;;;;;;;;5054983;28;20033;-82
2022/09/30 14:56:03;;;;;;;14.13;12.82;;;;;;;;;;5047103;28;20049;-81
2022/09/30 14:58:39;;;;;;;12.98;11.88;;;;;;;;;;5054209;28;20041;-82
2022/09/30 15:01:13;;;;;;;13.05;11.77;;;;;;;;;;5053005;28;20576;-82
2022/09/30 15:03:40;;;;;;;12.32;11.23;;;;;;;;;;5051016;28;20150;-82
2022/09/30 15:06:19;;;;;;;15.40;13.90;;;;;;;;;;5052455;28;20048;-81
2022/09/30 15:08:44;;;;;;;15.30;13.77;;;;;;;;;;5054416;28;20098;-81
2022/09/30 15:11:16;;;;;;;9.20;8.60;;;;;;;;;;5061540;28;20052;-81
2022/09/30 15:13:42;;;;;;;18.02;16.23;;;;;;;;;;5063164;28;20065;-82
2022/09/30 15:16:24;;;;;;;17.33;15.73;;;;;;;;;;5057858;28;20485;-81
2022/09/30 15:18:50;;;;;;;16.50;14.77;;;;;;;;;;5051475;28;20069;-80
2022/09/30 15:21:16;;;;;;;18.73;15.35;;;;;;;;;;5050768;28;20045;-82
2022/09/30 15:23:43;;;;;;;18.23;16.35;;;;;;;;;;5051002;28;20496;-81
2022/09/30 15:26:09;;;;;;;19.92;17.17;;;;;;;;;;5049260;28;20049;-81
2022/09/30 15:28:36;;;;;;;19.52;16.70;;;;;;;;;;5049811;28;20037;-82
2022/09/30 15:31:03;;;;;;;19.67;16.33;;;;;;;;;;5049287;28;20044;-82
2022/09/30 15:33:31;;;;;;;18.27;15.77;;;;;;;;;;5033627;28;20175;-82